Time,TemperatureF,DewpointF,PressureIn,WindDirection,WindDirectionDegrees,WindSpeedMPH,WindSpeedGustMPH,Humidity,HourlyPrecipIn,Conditions,Clouds,dailyrainin,SoftwareType,DateUTC
2013-01-17 00:00:00,30.5,26.8,29.83,NW,315,4.0,10.0,86,0.00,,,0.00,VWS V14.01,2013-01-17 05:00:00,
2013-01-17 00:05:00,30.3,28.3,29.83,NW,315,5.0,10.0,92,0.00,,,0.00,VWS V14.01,2013-01-17 05:05:00,
2013-01-17 00:10:00,30.1,26.4,29.83,NW,315,5.0,10.0,86,0.00,,,0.00,VWS V14.01,2013-01-17 05:10:00,
2013-01-17 00:15:00,30.0,26.3,29.83,NW,315,4.0,7.0,86,0.00,,,0.00,VWS V14.01,2013-01-17 05:15:00,
2013-01-17 00:20:00,29.8,26.1,29.83,NW,315,5.0,10.0,86,0.00,,,0.00,VWS V14.01,2013-01-17 05:20:00,
2013-01-17 00:25:00,29.7,26.3,29.83,NW,315,5.0,11.0,87,0.00,,,0.00,VWS V14.01,2013-01-17 05:25:00,
2013-01-17 00:30:00,29.8,26.4,29.83,NW,315,5.0,10.0,87,0.00,,,0.00,VWS V14.01,2013-01-17 05:30:00,
2013-01-17 00:35:00,29.9,26.5,29.83,NW,315,5.0,13.0,87,0.00,,,0.00,VWS V14.01,2013-01-17 05:35:00,
2013-01-17 00:40:00,29.9,26.5,29.83,NNW,338,5.0,11.0,87,0.00,,,0.00,VWS V14.01,2013-01-17 05:40:00,
2013-01-17 00:45:00,30.1,26.7,29.83,North,0,4.0,9.0,87,0.00,,,0.00,VWS V14.01,2013-01-17 05:45:00,
2013-01-17 00:50:00,30.1,26.7,29.83,North,0,2.0,7.0,87,0.00,,,0.00,VWS V14.01,2013-01-17 05:50:00,
2013-01-17 00:55:00,30.2,26.8,29.83,NW,315,2.0,6.0,87,0.00,,,0.00,VWS V14.01,2013-01-17 05:55:00,
2013-01-17 01:00:00,30.2,26.8,29.84,North,0,3.0,6.0,87,0.00,,,0.00,VWS V14.01,2013-01-17 06:00:00,
2013-01-17 01:05:00,30.3,26.9,29.84,North,0,2.0,7.0,87,0.00,,,0.00,VWS V14.01,2013-01-17 06:05:00,
2013-01-17 01:10:00,30.3,26.9,29.83,NNE,22,3.0,10.0,87,0.00,,,0.00,VWS V14.01,2013-01-17 06:10:00,
2013-01-17 01:15:00,30.3,26.9,29.84,ESE,112,3.0,6.0,87,0.00,,,0.00,VWS V14.01,2013-01-17 06:15:00,
2013-01-17 01:20:00,30.3,26.9,29.84,East,90,3.0,6.0,87,0.00,,,0.00,VWS V14.01,2013-01-17 06:20:00,
2013-01-17 01:25:00,30.2,26.8,29.84,East,90,3.0,6.0,87,0.00,,,0.00,VWS V14.01,2013-01-17 06:25:00,
2013-01-17 01:30:00,30.1,26.7,29.84,ENE,68,3.0,6.0,87,0.00,,,0.00,VWS V14.01,2013-01-17 06:30:00,
2013-01-17 01:35:00,30.1,26.7,29.84,NE,45,3.0,6.0,87,0.00,,,0.00,VWS V14.01,2013-01-17 06:35:00,
2013-01-17 01:40:00,30.0,26.9,29.85,NNE,22,2.0,6.0,88,0.00,,,0.00,VWS V14.01,2013-01-17 06:40:00,
2013-01-17 01:45:00,30.0,26.9,29.85,ENE,68,2.0,5.0,88,0.00,,,0.00,VWS V14.01,2013-01-17 06:45:00,
2013-01-17 01:50:00,30.0,26.9,29.85,NW,315,3.0,7.0,88,0.00,,,0.00,VWS V14.01,2013-01-17 06:50:00,
2013-01-17 01:55:00,30.1,27.0,29.84,East,90,3.0,8.0,88,0.00,,,0.00,VWS V14.01,2013-01-17 06:55:00,
2013-01-17 02:00:00,30.1,27.0,29.85,East,90,5.0,13.0,88,0.00,,,0.00,VWS V14.01,2013-01-17 07:00:00,
2013-01-17 02:05:00,30.0,26.9,29.85,East,90,2.0,4.0,88,0.00,,,0.00,VWS V14.01,2013-01-17 07:05:00,
2013-01-17 02:10:00,30.0,26.9,29.84,East,90,2.0,7.0,88,0.00,,,0.00,VWS V14.01,2013-01-17 07:10:00,
2013-01-17 02:15:00,30.0,26.9,29.84,ESE,112,3.0,6.0,88,0.00,,,0.00,VWS V14.01,2013-01-17 07:15:00,
2013-01-17 02:20:00,30.1,27.3,29.84,NNE,22,2.0,5.0,89,0.00,,,0.00,VWS V14.01,2013-01-17 07:20:00,
2013-01-17 02:25:00,30.1,27.3,29.84,SE,135,2.0,6.0,89,0.00,,,0.00,VWS V14.01,2013-01-17 07:25:00,
2013-01-17 02:30:00,30.1,27.3,29.84,East,90,4.0,7.0,89,0.00,,,0.00,VWS V14.01,2013-01-17 07:30:00,
2013-01-17 02:35:00,30.2,27.4,29.84,NNE,22,2.0,6.0,89,0.00,,,0.00,VWS V14.01,2013-01-17 07:35:00,
2013-01-17 02:40:00,30.3,27.2,29.84,North,0,3.0,7.0,88,0.00,,,0.00,VWS V14.01,2013-01-17 07:40:00,
2013-01-17 02:45:00,30.3,27.2,29.84,East,90,3.0,11.0,88,0.00,,,0.00,VWS V14.01,2013-01-17 07:45:00,
2013-01-17 02:50:00,30.4,27.3,29.84,East,90,4.0,9.0,88,0.00,,,0.00,VWS V14.01,2013-01-17 07:50:00,
2013-01-17 02:55:00,30.5,27.4,29.84,ENE,68,4.0,9.0,88,0.00,,,0.00,VWS V14.01,2013-01-17 07:55:00,
2013-01-17 03:00:00,30.5,27.4,29.84,NE,45,3.0,7.0,88,0.00,,,0.00,VWS V14.01,2013-01-17 08:00:00,
2013-01-17 03:05:00,30.6,27.5,29.84,NE,45,3.0,8.0,88,0.00,,,0.00,VWS V14.01,2013-01-17 08:05:00,
2013-01-17 03:10:00,30.6,27.5,29.84,East,90,3.0,7.0,88,0.00,,,0.00,VWS V14.01,2013-01-17 08:10:00,
2013-01-17 03:15:00,30.6,27.5,29.84,ENE,68,3.0,6.0,88,0.00,,,0.00,VWS V14.01,2013-01-17 08:15:00,
2013-01-17 03:20:00,30.6,27.5,29.84,East,90,3.0,5.0,88,0.00,,,0.00,VWS V14.01,2013-01-17 08:20:00,
2013-01-17 03:25:00,30.6,27.5,29.84,ENE,68,2.0,9.0,88,0.00,,,0.00,VWS V14.01,2013-01-17 08:25:00,
2013-01-17 03:30:00,30.6,27.5,29.84,ENE,68,2.0,6.0,88,0.00,,,0.00,VWS V14.01,2013-01-17 08:30:00,
2013-01-17 03:35:00,30.7,27.6,29.84,ESE,112,2.0,6.0,88,0.00,,,0.00,VWS V14.01,2013-01-17 08:35:00,
2013-01-17 03:40:00,30.7,27.6,29.84,ESE,112,2.0,6.0,88,0.00,,,0.00,VWS V14.01,2013-01-17 08:40:00,
2013-01-17 03:45:00,30.7,27.6,29.84,NNE,22,2.0,6.0,88,0.00,,,0.00,VWS V14.01,2013-01-17 08:45:00,
2013-01-17 03:50:00,30.8,27.7,29.84,East,90,2.0,6.0,88,0.00,,,0.00,VWS V14.01,2013-01-17 08:50:00,
2013-01-17 03:55:00,30.8,27.7,29.84,NNW,338,2.0,6.0,88,0.00,,,0.00,VWS V14.01,2013-01-17 08:55:00,
2013-01-17 04:00:00,30.8,27.7,29.84,NNE,22,1.0,6.0,88,0.00,,,0.00,VWS V14.01,2013-01-17 09:00:00,
2013-01-17 04:05:00,30.8,27.7,29.84,North,0,3.0,9.0,88,0.00,,,0.00,VWS V14.01,2013-01-17 09:05:00,
2013-01-17 04:10:00,30.8,27.7,29.84,North,0,1.0,4.0,88,0.00,,,0.00,VWS V14.01,2013-01-17 09:10:00,
2013-01-17 04:15:00,30.8,27.7,29.85,NE,45,2.0,5.0,88,0.00,,,0.00,VWS V14.01,2013-01-17 09:15:00,
2013-01-17 04:20:00,30.8,27.7,29.84,ESE,112,2.0,4.0,88,0.00,,,0.00,VWS V14.01,2013-01-17 09:20:00,
2013-01-17 04:25:00,30.8,27.7,29.84,ESE,112,2.0,5.0,88,0.00,,,0.00,VWS V14.01,2013-01-17 09:25:00,
2013-01-17 04:30:00,30.8,27.7,29.84,NNE,22,3.0,7.0,88,0.00,,,0.00,VWS V14.01,2013-01-17 09:30:00,
2013-01-17 04:35:00,30.8,27.7,29.84,North,0,3.0,7.0,88,0.00,,,0.00,VWS V14.01,2013-01-17 09:35:00,
2013-01-17 04:40:00,30.9,27.8,29.84,NNW,338,2.0,5.0,88,0.00,,,0.00,VWS V14.01,2013-01-17 09:40:00,
2013-01-17 04:45:00,30.9,27.8,29.84,NNW,338,2.0,5.0,88,0.00,,,0.00,VWS V14.01,2013-01-17 09:45:00,
2013-01-17 04:50:00,30.9,27.5,29.84,NW,315,2.0,6.0,87,0.00,,,0.00,VWS V14.01,2013-01-17 09:50:00,
2013-01-17 04:55:00,30.9,27.5,29.84,NNE,22,3.0,10.0,87,0.00,,,0.00,VWS V14.01,2013-01-17 09:55:00,
2013-01-17 05:00:00,31.0,27.6,29.84,North,0,4.0,9.0,87,0.00,,,0.00,VWS V14.01,2013-01-17 10:00:00,
2013-01-17 05:05:00,31.0,27.6,29.84,West,270,3.0,9.0,87,0.00,,,0.00,VWS V14.01,2013-01-17 10:05:00,
2013-01-17 05:10:00,31.0,27.6,29.85,NNW,338,2.0,7.0,87,0.00,,,0.00,VWS V14.01,2013-01-17 10:10:00,
2013-01-17 05:15:00,31.1,27.7,29.85,NE,45,2.0,5.0,87,0.00,,,0.00,VWS V14.01,2013-01-17 10:15:00,
2013-01-17 05:20:00,31.1,27.7,29.85,NE,45,2.0,5.0,87,0.00,,,0.00,VWS V14.01,2013-01-17 10:20:00,
2013-01-17 05:25:00,31.1,27.4,29.85,NNW,338,3.0,6.0,86,0.00,,,0.00,VWS V14.01,2013-01-17 10:25:00,
2013-01-17 05:30:00,31.1,27.7,29.86,North,0,2.0,8.0,87,0.00,,,0.00,VWS V14.01,2013-01-17 10:30:00,
2013-01-17 05:35:00,31.1,27.4,29.86,North,0,5.0,11.0,86,0.00,,,0.00,VWS V14.01,2013-01-17 10:35:00,
2013-01-17 05:40:00,31.1,27.4,29.86,NNW,338,3.0,9.0,86,0.00,,,0.00,VWS V14.01,2013-01-17 10:40:00,
2013-01-17 05:45:00,31.0,27.3,29.86,NNW,338,6.0,12.0,86,0.00,,,0.00,VWS V14.01,2013-01-17 10:45:00,
2013-01-17 05:50:00,30.9,27.5,29.86,NNW,338,5.0,11.0,87,0.00,,,0.00,VWS V14.01,2013-01-17 10:50:00,
2013-01-17 05:55:00,30.9,27.5,29.86,NNW,338,6.0,12.0,87,0.00,,,0.00,VWS V14.01,2013-01-17 10:55:00,
2013-01-17 06:00:00,30.8,27.4,29.86,NNW,338,6.0,13.0,87,0.00,,,0.00,VWS V14.01,2013-01-17 11:00:00,
2013-01-17 06:05:00,30.8,27.1,29.87,North,0,5.0,10.0,86,0.00,,,0.00,VWS V14.01,2013-01-17 11:05:00,
2013-01-17 06:10:00,30.8,27.1,29.87,North,0,6.0,11.0,86,0.00,,,0.00,VWS V14.01,2013-01-17 11:10:00,
2013-01-17 06:15:00,30.9,26.9,29.87,NNW,338,8.0,15.0,85,0.00,,,0.00,VWS V14.01,2013-01-17 11:15:00,
2013-01-17 06:20:00,31.2,26.9,29.87,NNW,338,7.0,17.0,84,0.00,,,0.00,VWS V14.01,2013-01-17 11:20:00,
2013-01-17 06:25:00,31.3,27.0,29.87,NNW,338,5.0,10.0,84,0.00,,,0.00,VWS V14.01,2013-01-17 11:25:00,
2013-01-17 06:30:00,31.3,27.0,29.87,NNW,338,6.0,13.0,84,0.00,,,0.00,VWS V14.01,2013-01-17 11:30:00,
2013-01-17 06:35:00,31.5,26.9,29.87,NNW,338,6.0,14.0,83,0.00,,,0.00,VWS V14.01,2013-01-17 11:35:00,
2013-01-17 06:40:00,31.5,26.9,29.88,NNW,338,6.0,14.0,83,0.00,,,0.00,VWS V14.01,2013-01-17 11:40:00,
2013-01-17 06:45:00,31.5,26.9,29.88,NW,315,6.0,14.0,83,0.00,,,0.00,VWS V14.01,2013-01-17 11:45:00,
2013-01-17 06:50:00,31.5,26.9,29.88,North,0,6.0,16.0,83,0.00,,,0.00,VWS V14.01,2013-01-17 11:50:00,
2013-01-17 06:55:00,31.4,26.8,29.88,NW,315,5.0,12.0,83,0.00,,,0.00,VWS V14.01,2013-01-17 11:55:00,
2013-01-17 07:00:00,31.4,26.8,29.88,NW,315,6.0,12.0,83,0.00,,,0.00,VWS V14.01,2013-01-17 12:00:00,
2013-01-17 07:05:00,31.3,26.8,29.89,NNW,338,7.0,14.0,83,0.00,,,0.00,VWS V14.01,2013-01-17 12:05:00,
2013-01-17 07:10:00,31.4,26.8,29.89,NNW,338,6.0,13.0,83,0.00,,,0.00,VWS V14.01,2013-01-17 12:10:00,
2013-01-17 07:15:00,31.3,26.8,29.89,NW,315,6.0,14.0,83,0.00,,,0.00,VWS V14.01,2013-01-17 12:15:00,
2013-01-17 07:20:00,31.3,26.8,29.89,NW,315,6.0,15.0,83,0.00,,,0.00,VWS V14.01,2013-01-17 12:20:00,
2013-01-17 07:25:00,31.3,26.8,29.89,NW,315,6.0,15.0,83,0.00,,,0.00,VWS V14.01,2013-01-17 12:25:00,
2013-01-17 07:30:00,31.3,26.8,29.90,NNW,338,4.0,9.0,83,0.00,,,0.00,VWS V14.01,2013-01-17 12:30:00,
2013-01-17 07:35:00,31.2,26.9,29.90,NW,315,4.0,10.0,84,0.00,,,0.00,VWS V14.01,2013-01-17 12:35:00,
2013-01-17 07:40:00,31.1,26.8,29.90,NW,315,4.0,10.0,84,0.00,,,0.00,VWS V14.01,2013-01-17 12:40:00,
2013-01-17 07:45:00,31.1,26.8,29.91,NW,315,5.0,10.0,84,0.00,,,0.00,VWS V14.01,2013-01-17 12:45:00,
2013-01-17 07:50:00,31.1,26.8,29.91,NNW,338,5.0,11.0,84,0.00,,,0.00,VWS V14.01,2013-01-17 12:50:00,
2013-01-17 07:55:00,31.2,26.9,29.91,NW,315,4.0,11.0,84,0.00,,,0.00,VWS V14.01,2013-01-17 12:55:00,
2013-01-17 08:00:00,31.3,27.0,29.92,NNW,338,4.0,11.0,84,0.00,,,0.00,VWS V14.01,2013-01-17 13:00:00,
2013-01-17 08:05:00,31.3,26.8,29.92,NNW,338,6.0,14.0,83,0.00,,,0.00,VWS V14.01,2013-01-17 13:05:00,
2013-01-17 08:10:00,31.5,26.9,29.92,NNW,338,4.0,11.0,83,0.00,,,0.00,VWS V14.01,2013-01-17 13:10:00,
2013-01-17 08:15:00,31.6,27.0,29.92,NNW,338,4.0,11.0,83,0.00,,,0.00,VWS V14.01,2013-01-17 13:15:00,
2013-01-17 08:20:00,31.6,27.0,29.93,NW,315,4.0,9.0,83,0.00,,,0.00,VWS V14.01,2013-01-17 13:20:00,
2013-01-17 08:25:00,31.6,27.0,29.93,NW,315,3.0,8.0,83,0.00,,,0.00,VWS V14.01,2013-01-17 13:25:00,
2013-01-17 08:30:00,31.6,27.0,29.93,NNW,338,3.0,7.0,83,0.00,,,0.00,VWS V14.01,2013-01-17 13:30:00,
2013-01-17 08:35:00,31.6,27.0,29.94,NNE,22,4.0,11.0,83,0.00,,,0.00,VWS V14.01,2013-01-17 13:35:00,
2013-01-17 08:40:00,31.7,26.8,29.94,NE,45,4.0,9.0,82,0.00,,,0.00,VWS V14.01,2013-01-17 13:40:00,
2013-01-17 08:45:00,31.9,27.0,29.94,North,0,3.0,8.0,82,0.00,,,0.00,VWS V14.01,2013-01-17 13:45:00,
2013-01-17 08:50:00,31.9,27.0,29.93,NNW,338,4.0,7.0,82,0.00,,,0.00,VWS V14.01,2013-01-17 13:50:00,
2013-01-17 08:55:00,31.8,26.9,29.93,NNW,338,3.0,9.0,82,0.00,,,0.00,VWS V14.01,2013-01-17 13:55:00,
2013-01-17 09:00:00,31.7,26.8,29.93,NNW,338,3.0,6.0,82,0.00,,,0.00,VWS V14.01,2013-01-17 14:00:00,
2013-01-17 09:05:00,31.7,26.8,29.94,NNW,338,4.0,12.0,82,0.00,,,0.00,VWS V14.01,2013-01-17 14:05:00,
2013-01-17 09:10:00,31.7,26.8,29.94,NNW,338,4.0,7.0,82,0.00,,,0.00,VWS V14.01,2013-01-17 14:10:00,
2013-01-17 09:15:00,31.9,27.0,29.95,North,0,2.0,6.0,82,0.00,,,0.00,VWS V14.01,2013-01-17 14:15:00,
2013-01-17 09:20:00,32.1,27.2,29.95,NW,315,3.0,6.0,82,0.00,,,0.00,VWS V14.01,2013-01-17 14:20:00,
2013-01-17 09:25:00,32.2,27.3,29.95,North,0,3.0,7.0,82,0.00,,,0.00,VWS V14.01,2013-01-17 14:25:00,
2013-01-17 09:30:00,32.2,27.3,29.96,North,0,1.0,4.0,82,0.00,,,0.00,VWS V14.01,2013-01-17 14:30:00,
2013-01-17 09:35:00,32.3,27.4,29.96,NE,45,2.0,4.0,82,0.00,,,0.00,VWS V14.01,2013-01-17 14:35:00,
2013-01-17 09:40:00,32.3,27.7,29.96,NE,45,2.0,7.0,83,0.00,,,0.00,VWS V14.01,2013-01-17 14:40:00,
2013-01-17 09:45:00,32.3,27.7,29.97,ESE,112,1.0,5.0,83,0.00,,,0.00,VWS V14.01,2013-01-17 14:45:00,
2013-01-17 09:50:00,32.4,27.8,29.98,SSE,158,2.0,4.0,83,0.00,,,0.00,VWS V14.01,2013-01-17 14:50:00,
2013-01-17 09:55:00,31.9,27.9,29.98,ESE,112,2.0,6.0,85,0.00,,,0.00,VWS V14.01,2013-01-17 14:55:00,
2013-01-17 10:00:00,31.6,28.2,29.98,SW,225,2.0,6.0,87,0.01,,,0.01,VWS V14.01,2013-01-17 15:00:00,
2013-01-17 10:05:00,31.3,28.2,29.98,WSW,248,1.0,4.0,88,0.02,,,0.02,VWS V14.01,2013-01-17 15:05:00,
2013-01-17 10:10:00,31.0,27.9,29.98,SSE,158,3.0,10.0,88,0.02,,,0.02,VWS V14.01,2013-01-17 15:10:00,
2013-01-17 10:15:00,30.3,26.9,29.99,WSW,248,5.0,11.0,87,0.02,,,0.02,VWS V14.01,2013-01-17 15:15:00,
2013-01-17 10:20:00,29.5,26.1,30.00,East,90,4.0,11.0,87,0.02,,,0.02,VWS V14.01,2013-01-17 15:20:00,
2013-01-17 10:25:00,28.8,25.4,29.99,WSW,248,4.0,8.0,87,0.02,,,0.02,VWS V14.01,2013-01-17 15:25:00,
2013-01-17 10:30:00,28.6,25.0,30.00,NNE,22,2.0,7.0,86,0.02,,,0.02,VWS V14.01,2013-01-17 15:30:00,
2013-01-17 10:35:00,28.5,24.3,30.01,SW,225,4.0,10.0,84,0.02,,,0.02,VWS V14.01,2013-01-17 15:35:00,
2013-01-17 10:40:00,28.3,24.1,30.01,SW,225,5.0,11.0,84,0.02,,,0.02,VWS V14.01,2013-01-17 15:40:00,
2013-01-17 10:45:00,28.3,23.5,30.01,SW,225,7.0,15.0,82,0.02,,,0.02,VWS V14.01,2013-01-17 15:45:00,
2013-01-17 10:50:00,28.2,23.1,30.01,WSW,248,6.0,15.0,81,0.02,,,0.02,VWS V14.01,2013-01-17 15:50:00,
2013-01-17 10:55:00,28.2,22.8,30.02,WSW,248,4.0,12.0,80,0.02,,,0.02,VWS V14.01,2013-01-17 15:55:00,
2013-01-17 11:00:00,27.9,20.7,30.03,SW,225,8.0,19.0,74,0.02,,,0.02,VWS V14.01,2013-01-17 16:00:00,
2013-01-17 11:05:00,27.4,18.9,30.03,WSW,248,5.0,16.0,70,0.01,,,0.02,VWS V14.01,2013-01-17 16:05:00,
2013-01-17 11:10:00,27.0,17.2,30.03,SW,225,5.0,17.0,66,0.00,,,0.02,VWS V14.01,2013-01-17 16:10:00,
2013-01-17 11:15:00,26.8,15.5,30.04,WSW,248,6.0,18.0,62,0.00,,,0.02,VWS V14.01,2013-01-17 16:15:00,
2013-01-17 11:20:00,26.6,15.7,30.04,SW,225,3.0,12.0,63,0.00,,,0.02,VWS V14.01,2013-01-17 16:20:00,
2013-01-17 11:25:00,26.5,14.9,30.04,SW,225,4.0,14.0,61,0.00,,,0.02,VWS V14.01,2013-01-17 16:25:00,
2013-01-17 11:30:00,26.6,15.0,30.05,West,270,4.0,12.0,61,0.00,,,0.02,VWS V14.01,2013-01-17 16:30:00,
2013-01-17 11:35:00,26.7,15.8,30.05,SW,225,4.0,14.0,63,0.00,,,0.02,VWS V14.01,2013-01-17 16:35:00,
2013-01-17 11:40:00,26.9,15.6,30.05,WNW,292,4.0,12.0,62,0.00,,,0.02,VWS V14.01,2013-01-17 16:40:00,
2013-01-17 11:45:00,26.9,15.3,30.05,WSW,248,4.0,13.0,61,0.00,,,0.02,VWS V14.01,2013-01-17 16:45:00,
2013-01-17 11:50:00,26.7,15.1,30.05,WNW,292,3.0,13.0,61,0.00,,,0.02,VWS V14.01,2013-01-17 16:50:00,
2013-01-17 11:55:00,26.7,14.3,30.05,SSW,202,4.0,11.0,59,0.00,,,0.02,VWS V14.01,2013-01-17 16:55:00,
2013-01-17 12:00:00,26.7,14.7,30.06,West,270,2.0,13.0,60,0.00,,,0.02,VWS V14.01,2013-01-17 17:00:00,
2013-01-17 12:05:00,26.9,15.3,30.06,SW,225,3.0,11.0,61,0.00,,,0.02,VWS V14.01,2013-01-17 17:05:00,
2013-01-17 12:10:00,27.0,15.7,30.06,WSW,248,4.0,10.0,62,0.00,,,0.02,VWS V14.01,2013-01-17 17:10:00,
2013-01-17 12:15:00,26.9,16.0,30.06,SW,225,5.0,13.0,63,0.00,,,0.02,VWS V14.01,2013-01-17 17:15:00,
2013-01-17 12:20:00,26.5,16.0,30.06,WSW,248,4.0,12.0,64,0.00,,,0.02,VWS V14.01,2013-01-17 17:20:00,
2013-01-17 12:25:00,26.3,15.8,30.07,West,270,5.0,17.0,64,0.00,,,0.02,VWS V14.01,2013-01-17 17:25:00,
2013-01-17 12:30:00,26.0,14.8,30.06,SW,225,5.0,17.0,62,0.00,,,0.02,VWS V14.01,2013-01-17 17:30:00,
2013-01-17 12:35:00,25.5,14.3,30.07,WSW,248,5.0,12.0,62,0.00,,,0.02,VWS V14.01,2013-01-17 17:35:00,
2013-01-17 12:40:00,25.1,13.9,30.07,WSW,248,5.0,13.0,62,0.00,,,0.02,VWS V14.01,2013-01-17 17:40:00,
2013-01-17 12:45:00,24.7,13.6,30.07,WSW,248,4.0,12.0,62,0.00,,,0.02,VWS V14.01,2013-01-17 17:45:00,
2013-01-17 12:50:00,24.6,13.1,30.07,SW,225,3.0,9.0,61,0.00,,,0.02,VWS V14.01,2013-01-17 17:50:00,
2013-01-17 12:55:00,24.6,13.1,30.07,SW,225,3.0,10.0,61,0.00,,,0.02,VWS V14.01,2013-01-17 17:55:00,
2013-01-17 13:00:00,24.7,12.8,30.07,WSW,248,4.0,9.0,60,0.00,,,0.02,VWS V14.01,2013-01-17 18:00:00,
2013-01-17 13:05:00,24.4,12.1,30.07,WSW,248,6.0,13.0,59,0.00,,,0.02,VWS V14.01,2013-01-17 18:05:00,
2013-01-17 13:10:00,24.0,11.8,30.08,WSW,248,4.0,10.0,59,0.00,,,0.02,VWS V14.01,2013-01-17 18:10:00,
2013-01-17 13:15:00,23.7,11.5,30.08,WSW,248,4.0,12.0,59,0.00,,,0.02,VWS V14.01,2013-01-17 18:15:00,
2013-01-17 13:20:00,23.4,10.8,30.07,SW,225,4.0,13.0,58,0.00,,,0.02,VWS V14.01,2013-01-17 18:20:00,
2013-01-17 13:25:00,23.4,10.8,30.08,SW,225,3.0,7.0,58,0.00,,,0.02,VWS V14.01,2013-01-17 18:25:00,
2013-01-17 13:30:00,23.5,11.7,30.08,SSW,202,2.0,5.0,60,0.00,,,0.02,VWS V14.01,2013-01-17 18:30:00,
2013-01-17 13:35:00,23.6,9.8,30.08,SW,225,5.0,13.0,55,0.00,,,0.02,VWS V14.01,2013-01-17 18:35:00,
2013-01-17 13:40:00,23.1,9.8,30.08,SSW,202,3.0,7.0,56,0.00,,,0.02,VWS V14.01,2013-01-17 18:40:00,
2013-01-17 13:45:00,22.7,9.8,30.09,SSE,158,2.0,10.0,57,0.00,,,0.02,VWS V14.01,2013-01-17 18:45:00,
2013-01-17 13:50:00,22.5,10.4,30.09,ESE,112,2.0,7.0,59,0.00,,,0.02,VWS V14.01,2013-01-17 18:50:00,
2013-01-17 13:55:00,22.3,9.4,30.09,SW,225,3.0,11.0,57,0.00,,,0.02,VWS V14.01,2013-01-17 18:55:00,
2013-01-17 14:00:00,22.1,9.2,30.09,SW,225,1.0,4.0,57,0.00,,,0.02,VWS V14.01,2013-01-17 19:00:00,
2013-01-17 14:05:00,22.1,9.2,30.10,SSW,202,2.0,6.0,57,0.00,,,0.02,VWS V14.01,2013-01-17 19:05:00,
2013-01-17 14:10:00,21.8,8.9,30.10,SW,225,3.0,11.0,57,0.00,,,0.02,VWS V14.01,2013-01-17 19:10:00,
2013-01-17 14:15:00,21.4,8.1,30.10,WSW,248,3.0,7.0,56,0.00,,,0.02,VWS V14.01,2013-01-17 19:15:00,
2013-01-17 14:20:00,20.8,7.6,30.10,WSW,248,3.0,10.0,56,0.00,,,0.02,VWS V14.01,2013-01-17 19:20:00,
2013-01-17 14:25:00,20.5,7.3,30.10,SW,225,5.0,12.0,56,0.00,,,0.02,VWS V14.01,2013-01-17 19:25:00,
2013-01-17 14:30:00,20.2,7.0,30.10,SW,225,1.0,5.0,56,0.00,,,0.02,VWS V14.01,2013-01-17 19:30:00,
2013-01-17 14:35:00,20.1,6.9,30.11,SW,225,3.0,7.0,56,0.00,,,0.02,VWS V14.01,2013-01-17 19:35:00,
2013-01-17 14:40:00,19.9,6.8,30.11,SW,225,3.0,7.0,56,0.00,,,0.02,VWS V14.01,2013-01-17 19:40:00,
2013-01-17 14:45:00,19.7,6.9,30.11,SW,225,0.0,3.0,57,0.00,,,0.02,VWS V14.01,2013-01-17 19:45:00,
2013-01-17 14:50:00,19.7,6.6,30.11,SW,225,2.0,6.0,56,0.00,,,0.02,VWS V14.01,2013-01-17 19:50:00,
2013-01-17 14:55:00,19.6,6.5,30.11,SSW,202,1.0,4.0,56,0.00,,,0.02,VWS V14.01,2013-01-17 19:55:00,
2013-01-17 15:00:00,19.5,6.8,30.11,SW,225,1.0,5.0,57,0.00,,,0.02,VWS V14.01,2013-01-17 20:00:00,
2013-01-17 15:05:00,19.3,6.6,30.11,SSE,158,1.0,5.0,57,0.00,,,0.02,VWS V14.01,2013-01-17 20:05:00,
2013-01-17 15:10:00,19.1,6.0,30.11,SW,225,2.0,9.0,56,0.00,,,0.02,VWS V14.01,2013-01-17 20:10:00,
2013-01-17 15:15:00,19.1,6.4,30.12,ESE,112,1.0,6.0,57,0.00,,,0.02,VWS V14.01,2013-01-17 20:15:00,
2013-01-17 15:20:00,19.0,5.5,30.12,South,180,2.0,6.0,55,0.00,,,0.02,VWS V14.01,2013-01-17 20:20:00,
2013-01-17 15:25:00,18.9,5.8,30.13,SSW,202,1.0,6.0,56,0.00,,,0.02,VWS V14.01,2013-01-17 20:25:00,
2013-01-17 15:30:00,18.9,5.4,30.12,SSW,202,2.0,5.0,55,0.00,,,0.02,VWS V14.01,2013-01-17 20:30:00,
2013-01-17 15:35:00,18.8,4.9,30.13,ESE,112,1.0,5.0,54,0.00,,,0.02,VWS V14.01,2013-01-17 20:35:00,
2013-01-17 15:40:00,18.6,4.7,30.14,SW,225,1.0,6.0,54,0.00,,,0.02,VWS V14.01,2013-01-17 20:40:00,
2013-01-17 15:45:00,18.4,4.9,30.14,WSW,248,2.0,4.0,55,0.00,,,0.02,VWS V14.01,2013-01-17 20:45:00,
2013-01-17 15:50:00,18.2,4.8,30.14,SW,225,1.0,3.0,55,0.00,,,0.02,VWS V14.01,2013-01-17 20:50:00,
2013-01-17 15:55:00,18.0,4.6,30.14,SW,225,2.0,6.0,55,0.00,,,0.02,VWS V14.01,2013-01-17 20:55:00,
2013-01-17 16:00:00,17.9,4.9,30.14,SW,225,1.0,7.0,56,0.00,,,0.02,VWS V14.01,2013-01-17 21:00:00,
2013-01-17 16:05:00,17.6,3.8,30.14,SW,225,2.0,7.0,54,0.00,,,0.02,VWS V14.01,2013-01-17 21:05:00,
2013-01-17 16:10:00,17.3,3.9,30.14,SW,225,2.0,5.0,55,0.00,,,0.02,VWS V14.01,2013-01-17 21:10:00,
2013-01-17 16:15:00,17.1,4.1,30.13,WSW,248,1.0,4.0,56,0.00,,,0.02,VWS V14.01,2013-01-17 21:15:00,
2013-01-17 16:20:00,17.0,4.0,30.14,SW,225,1.0,3.0,56,0.00,,,0.02,VWS V14.01,2013-01-17 21:20:00,
2013-01-17 16:25:00,16.9,3.9,30.14,SSE,158,1.0,3.0,56,0.00,,,0.02,VWS V14.01,2013-01-17 21:25:00,
2013-01-17 16:30:00,16.7,3.3,30.14,WSW,248,1.0,4.0,55,0.00,,,0.02,VWS V14.01,2013-01-17 21:30:00,
2013-01-17 16:35:00,16.4,3.5,30.15,SW,225,1.0,4.0,56,0.00,,,0.02,VWS V14.01,2013-01-17 21:35:00,
2013-01-17 16:40:00,16.3,3.4,30.14,SW,225,1.0,3.0,56,0.00,,,0.02,VWS V14.01,2013-01-17 21:40:00,
2013-01-17 16:45:00,16.2,3.7,30.15,SW,225,0.0,2.0,57,0.00,,,0.02,VWS V14.01,2013-01-17 21:45:00,
2013-01-17 16:50:00,16.2,3.7,30.15,SW,225,0.0,3.0,57,0.00,,,0.02,VWS V14.01,2013-01-17 21:50:00,
2013-01-17 16:55:00,16.1,3.9,30.15,SW,225,0.0,2.0,58,0.00,,,0.02,VWS V14.01,2013-01-17 21:55:00,
2013-01-17 17:00:00,16.1,3.6,30.15,SW,225,0.0,3.0,57,0.00,,,0.02,VWS V14.01,2013-01-17 22:00:00,
2013-01-17 17:05:00,16.0,3.5,30.15,SSE,158,1.0,3.0,57,0.00,,,0.02,VWS V14.01,2013-01-17 22:05:00,
2013-01-17 17:10:00,15.9,3.4,30.15,SW,225,0.0,3.0,57,0.00,,,0.02,VWS V14.01,2013-01-17 22:10:00,
2013-01-17 17:15:00,15.7,3.6,30.15,SW,225,1.0,5.0,58,0.00,,,0.02,VWS V14.01,2013-01-17 22:15:00,
2013-01-17 17:20:00,15.5,3.0,30.15,SW,225,1.0,4.0,57,0.00,,,0.02,VWS V14.01,2013-01-17 22:20:00,
2013-01-17 17:25:00,15.4,3.3,30.16,SW,225,0.0,1.0,58,0.00,,,0.02,VWS V14.01,2013-01-17 22:25:00,
2013-01-17 17:30:00,15.2,3.5,30.16,SW,225,0.0,2.0,59,0.00,,,0.02,VWS V14.01,2013-01-17 22:30:00,
2013-01-17 17:35:00,15.2,2.7,30.16,SW,225,0.0,3.0,57,0.00,,,0.02,VWS V14.01,2013-01-17 22:35:00,
2013-01-17 17:40:00,15.0,2.9,30.17,SW,225,0.0,1.0,58,0.00,,,0.02,VWS V14.01,2013-01-17 22:40:00,
2013-01-17 17:45:00,14.9,2.8,30.17,SW,225,1.0,5.0,58,0.00,,,0.02,VWS V14.01,2013-01-17 22:45:00,
2013-01-17 17:50:00,14.8,2.7,30.17,WSW,248,1.0,4.0,58,0.00,,,0.02,VWS V14.01,2013-01-17 22:50:00,
2013-01-17 17:55:00,14.5,2.4,30.17,WSW,248,2.0,5.0,58,0.00,,,0.02,VWS V14.01,2013-01-17 22:55:00,
2013-01-17 18:00:00,14.3,2.2,30.17,WSW,248,2.0,6.0,58,0.00,,,0.02,VWS V14.01,2013-01-17 23:00:00,
2013-01-17 18:05:00,14.1,2.4,30.17,SW,225,3.0,7.0,59,0.00,,,0.02,VWS V14.01,2013-01-17 23:05:00,
2013-01-17 18:10:00,14.1,2.8,30.17,SW,225,2.0,6.0,60,0.00,,,0.02,VWS V14.01,2013-01-17 23:10:00,
2013-01-17 18:15:00,14.0,2.7,30.17,West,270,2.0,6.0,60,0.00,,,0.02,VWS V14.01,2013-01-17 23:15:00,
2013-01-17 18:20:00,14.0,2.3,30.17,SW,225,3.0,6.0,59,0.00,,,0.02,VWS V14.01,2013-01-17 23:20:00,
2013-01-17 18:25:00,13.9,2.6,30.17,SW,225,3.0,9.0,60,0.00,,,0.02,VWS V14.01,2013-01-17 23:25:00,
2013-01-17 18:30:00,13.9,2.6,30.17,WNW,292,1.0,5.0,60,0.00,,,0.02,VWS V14.01,2013-01-17 23:30:00,
2013-01-17 18:35:00,13.8,2.5,30.18,WNW,292,1.0,4.0,60,0.00,,,0.02,VWS V14.01,2013-01-17 23:35:00,
2013-01-17 18:40:00,13.8,2.5,30.19,SSW,202,2.0,9.0,60,0.00,,,0.02,VWS V14.01,2013-01-17 23:40:00,
2013-01-17 18:45:00,13.7,2.0,30.19,SW,225,3.0,6.0,59,0.00,,,0.02,VWS V14.01,2013-01-17 23:45:00,
2013-01-17 18:50:00,13.5,2.6,30.18,SW,225,1.0,3.0,61,0.00,,,0.02,VWS V14.01,2013-01-17 23:50:00,
2013-01-17 18:55:00,13.4,2.1,30.19,SW,225,2.0,6.0,60,0.00,,,0.02,VWS V14.01,2013-01-17 23:55:00,
2013-01-17 19:00:00,13.2,1.9,30.19,West,270,1.0,4.0,60,0.00,,,0.02,VWS V14.01,2013-01-18 00:00:00,
2013-01-17 19:05:00,13.1,1.8,30.19,SW,225,2.0,6.0,60,0.00,,,0.02,VWS V14.01,2013-01-18 00:05:00,
2013-01-17 19:10:00,12.9,2.0,30.19,WSW,248,2.0,5.0,61,0.00,,,0.02,VWS V14.01,2013-01-18 00:10:00,
2013-01-17 19:15:00,12.8,2.2,30.19,SSW,202,1.0,5.0,62,0.00,,,0.02,VWS V14.01,2013-01-18 00:15:00,
2013-01-17 19:20:00,12.6,2.1,30.19,SSW,202,0.0,2.0,62,0.00,,,0.02,VWS V14.01,2013-01-18 00:20:00,
2013-01-17 19:25:00,12.6,1.7,30.18,SSW,202,1.0,4.0,61,0.00,,,0.02,VWS V14.01,2013-01-18 00:25:00,
2013-01-17 19:30:00,12.4,1.9,30.18,SW,225,0.0,4.0,62,0.00,,,0.02,VWS V14.01,2013-01-18 00:30:00,
2013-01-17 19:35:00,12.3,1.8,30.19,West,270,1.0,3.0,62,0.00,,,0.02,VWS V14.01,2013-01-18 00:35:00,
2013-01-17 19:40:00,12.2,1.7,30.19,SW,225,2.0,6.0,62,0.00,,,0.02,VWS V14.01,2013-01-18 00:40:00,
2013-01-17 19:45:00,12.1,1.6,30.19,SW,225,1.0,2.0,62,0.00,,,0.02,VWS V14.01,2013-01-18 00:45:00,
2013-01-17 19:50:00,12.0,1.5,30.20,South,180,1.0,4.0,62,0.00,,,0.02,VWS V14.01,2013-01-18 00:50:00,
2013-01-17 19:55:00,12.0,1.5,30.20,SW,225,0.0,4.0,62,0.00,,,0.02,VWS V14.01,2013-01-18 00:55:00,
2013-01-17 20:00:00,11.9,1.7,30.20,SW,225,0.0,1.0,63,0.00,,,0.02,VWS V14.01,2013-01-18 01:00:00,
2013-01-17 20:05:00,10.7,0.9,30.19,SW,217,1.0,3.0,64,0.00,,,0.02,VWS V14.01,2013-01-18 01:05:00,
2013-01-17 20:10:00,11.9,1.7,30.20,SW,225,0.0,1.0,63,0.00,,,0.02,VWS V14.01,2013-01-18 01:10:00,
2013-01-17 20:11:00,11.6,1.1,30.20,WSW,240,0.0,0.0,62,0.00,,,0.02,VWS V14.01,2013-01-18 01:11:00,
2013-01-17 20:15:00,11.6,1.5,30.20,SSW,203,1.0,4.0,63,0.00,,,0.02,VWS V14.01,2013-01-18 01:15:00,
2013-01-17 20:16:00,11.6,1.5,30.20,SW,222,1.0,2.0,63,0.00,,,0.02,VWS V14.01,2013-01-18 01:16:00,
2013-01-17 20:20:00,11.5,1.4,30.21,SW,221,0.0,3.0,63,0.00,,,0.02,VWS V14.01,2013-01-18 01:20:00,
2013-01-17 20:21:00,11.5,1.4,30.21,SW,221,0.0,0.0,63,0.00,,,0.02,VWS V14.01,2013-01-18 01:21:00,
2013-01-17 20:25:00,11.4,1.3,30.20,WSW,240,0.0,4.0,63,0.00,,,0.02,VWS V14.01,2013-01-18 01:25:00,
2013-01-17 20:26:00,11.4,1.3,30.20,WSW,240,0.0,0.0,63,0.00,,,0.02,VWS V14.01,2013-01-18 01:26:00,
2013-01-17 20:30:00,11.3,1.2,30.19,SW,217,0.0,4.0,63,0.00,,,0.02,VWS V14.01,2013-01-18 01:30:00,
2013-01-17 20:31:00,11.3,1.2,30.20,SW,217,0.0,0.0,63,0.00,,,0.02,VWS V14.01,2013-01-18 01:31:00,
2013-01-17 20:35:00,11.1,1.0,30.19,West,261,0.0,4.0,63,0.00,,,0.02,VWS V14.01,2013-01-18 01:35:00,
2013-01-17 20:36:00,11.1,1.0,30.19,West,261,1.0,2.0,63,0.00,,,0.02,VWS V14.01,2013-01-18 01:36:00,
2013-01-17 20:37:00,11.1,1.0,30.19,West,261,0.0,2.0,63,0.00,,,0.02,VWS V14.01,2013-01-18 01:37:00,
2013-01-17 20:40:00,11.0,1.2,30.19,West,261,0.0,3.0,64,0.00,,,0.02,VWS V14.01,2013-01-18 01:40:00,
2013-01-17 20:41:00,11.0,1.2,30.18,West,261,2.0,2.0,64,0.00,,,0.02,VWS V14.01,2013-01-18 01:41:00,
2013-01-17 20:42:00,11.0,1.2,30.19,West,261,0.0,2.0,64,0.00,,,0.02,VWS V14.01,2013-01-18 01:42:00,
2013-01-17 20:45:00,10.9,1.1,30.18,SW,228,4.0,4.0,64,0.00,,,0.02,VWS V14.01,2013-01-18 01:45:00,
2013-01-17 20:46:00,10.9,1.1,30.18,WSW,241,1.0,5.0,64,0.00,,,0.02,VWS V14.01,2013-01-18 01:46:00,
2013-01-17 20:47:00,10.9,1.1,30.18,WSW,241,1.0,5.0,64,0.00,,,0.02,VWS V14.01,2013-01-18 01:47:00,
2013-01-17 20:50:00,10.9,1.1,30.18,SW,225,0.0,5.0,64,0.00,,,0.02,VWS V14.01,2013-01-18 01:50:00,
2013-01-17 20:51:00,10.9,1.1,30.19,SW,225,1.0,1.0,64,0.00,,,0.02,VWS V14.01,2013-01-18 01:51:00,
2013-01-17 20:52:00,10.9,1.1,30.19,SW,225,3.0,3.0,64,0.00,,,0.02,VWS V14.01,2013-01-18 01:52:00,
2013-01-17 20:55:00,10.9,1.1,30.18,SW,218,1.0,3.0,64,0.00,,,0.02,VWS V14.01,2013-01-18 01:55:00,
2013-01-17 20:57:00,10.8,1.0,30.19,SSW,206,0.0,2.0,64,0.00,,,0.02,VWS V14.01,2013-01-18 01:57:00,
2013-01-17 21:00:00,10.8,1.0,30.19,SSW,208,0.0,3.0,64,0.00,,,0.02,VWS V14.01,2013-01-18 02:00:00,
2013-01-17 21:02:00,10.8,1.0,30.19,SSW,209,0.0,2.0,64,0.00,,,0.02,VWS V14.01,2013-01-18 02:02:00,
2013-01-17 21:05:00,10.7,0.9,30.19,SW,217,1.0,3.0,64,0.00,,,0.02,VWS V14.01,2013-01-18 02:05:00,
2013-01-17 21:07:00,10.7,0.9,30.19,SW,217,0.0,1.0,64,0.00,,,0.02,VWS V14.01,2013-01-18 02:07:00,
2013-01-17 21:08:00,10.6,0.8,30.19,SW,217,1.0,1.0,64,0.00,,,0.02,VWS V14.01,2013-01-18 02:08:00,
2013-01-17 21:10:00,10.5,0.8,30.19,SW,217,0.0,2.0,64,0.00,,,0.02,VWS V14.01,2013-01-18 02:10:00,
2013-01-17 21:12:00,10.5,0.8,30.20,SW,217,0.0,0.0,64,0.00,,,0.02,VWS V14.01,2013-01-18 02:12:00,
2013-01-17 21:13:00,10.5,0.8,30.19,SW,217,0.0,0.0,64,0.00,,,0.02,VWS V14.01,2013-01-18 02:13:00,
2013-01-17 21:15:00,10.4,0.6,30.20,SW,217,0.0,1.0,64,0.00,,,0.02,VWS V14.01,2013-01-18 02:15:00,
2013-01-17 21:17:00,10.4,0.6,30.20,SW,220,0.0,1.0,64,0.00,,,0.02,VWS V14.01,2013-01-18 02:17:00,
2013-01-17 21:18:00,10.4,0.6,30.20,SW,220,0.0,1.0,64,0.00,,,0.02,VWS V14.01,2013-01-18 02:18:00,
2013-01-17 21:20:00,10.3,0.6,30.19,SW,225,0.0,3.0,64,0.00,,,0.00,VWS V14.01,2013-01-18 02:20:00,
2013-01-17 21:25:00,10.2,0.5,30.19,SW,225,1.0,3.0,64,0.00,,,0.00,VWS V14.01,2013-01-18 02:25:00,
2013-01-17 21:30:00,10.1,0.7,30.19,SW,225,0.0,0.0,65,0.00,,,0.00,VWS V14.01,2013-01-18 02:30:00,
2013-01-17 21:35:00,10.0,0.6,30.19,SW,225,0.0,0.0,65,0.00,,,0.00,VWS V14.01,2013-01-18 02:35:00,
2013-01-17 21:40:00,9.9,0.5,30.19,SW,225,0.0,3.0,65,0.00,,,0.00,VWS V14.01,2013-01-18 02:40:00,
2013-01-17 21:45:00,9.9,0.5,30.19,SW,225,0.0,2.0,65,0.00,,,0.00,VWS V14.01,2013-01-18 02:45:00,
2013-01-17 21:50:00,9.8,0.4,30.17,SW,225,2.0,5.0,65,0.00,,,0.00,VWS V14.01,2013-01-18 02:50:00,
2013-01-17 21:55:00,9.8,0.4,30.17,SW,225,1.0,5.0,65,0.00,,,0.00,VWS V14.01,2013-01-18 02:55:00,
2013-01-17 22:00:00,9.8,0.4,30.17,WNW,292,1.0,3.0,65,0.00,,,0.00,VWS V14.01,2013-01-18 03:00:00,
2013-01-17 22:05:00,9.7,0.3,30.18,WNW,292,0.0,0.0,65,0.00,,,0.00,VWS V14.01,2013-01-18 03:05:00,
2013-01-17 22:10:00,9.7,0.3,30.18,SSW,202,0.0,3.0,65,0.00,,,0.00,VWS V14.01,2013-01-18 03:10:00,
2013-01-17 22:15:00,9.6,0.2,30.18,SSW,202,1.0,5.0,65,0.00,,,0.00,VWS V14.01,2013-01-18 03:15:00,
2013-01-17 22:20:00,9.6,0.2,30.19,SW,225,1.0,3.0,65,0.00,,,0.00,VWS V14.01,2013-01-18 03:20:00,
2013-01-17 22:25:00,9.5,0.4,30.18,SW,225,0.0,2.0,66,0.00,,,0.00,VWS V14.01,2013-01-18 03:25:00,
2013-01-17 22:30:00,9.5,0.4,30.19,SSW,202,0.0,3.0,66,0.00,,,0.00,VWS V14.01,2013-01-18 03:30:00,
2013-01-17 22:35:00,9.5,0.4,30.20,SW,225,0.0,3.0,66,0.00,,,0.00,VWS V14.01,2013-01-18 03:35:00,
2013-01-17 22:40:00,9.4,0.3,30.19,SSW,202,1.0,6.0,66,0.00,,,0.00,VWS V14.01,2013-01-18 03:40:00,
2013-01-17 22:45:00,9.3,0.3,30.18,WSW,248,2.0,5.0,66,0.00,,,0.00,VWS V14.01,2013-01-18 03:45:00,
2013-01-17 22:50:00,9.2,0.2,30.18,SW,225,1.0,4.0,66,0.00,,,0.00,VWS V14.01,2013-01-18 03:50:00,
2013-01-17 22:55:00,9.2,0.2,30.18,SW,225,2.0,9.0,66,0.00,,,0.00,VWS V14.01,2013-01-18 03:55:00,
2013-01-17 23:00:00,9.2,0.2,30.17,SW,225,2.0,8.0,66,0.00,,,0.00,VWS V14.01,2013-01-18 04:00:00,
2013-01-17 23:05:00,9.1,0.1,30.17,WSW,248,2.0,5.0,66,0.00,,,0.00,VWS V14.01,2013-01-18 04:05:00,
2013-01-17 23:10:00,9.0,0.0,30.17,WSW,248,2.0,6.0,66,0.00,,,0.00,VWS V14.01,2013-01-18 04:10:00,
2013-01-17 23:15:00,9.0,0.3,30.17,WSW,248,1.0,5.0,67,0.00,,,0.00,VWS V14.01,2013-01-18 04:15:00,
2013-01-17 23:20:00,8.9,0.2,30.18,SSW,202,1.0,4.0,67,0.00,,,0.00,VWS V14.01,2013-01-18 04:20:00,
2013-01-17 23:25:00,8.9,0.2,30.16,SW,225,2.0,7.0,67,0.00,,,0.00,VWS V14.01,2013-01-18 04:25:00,
2013-01-17 23:30:00,8.9,0.2,30.16,SW,225,1.0,3.0,67,0.00,,,0.00,VWS V14.01,2013-01-18 04:30:00,
2013-01-17 23:35:00,8.9,0.2,30.17,WSW,248,1.0,5.0,67,0.00,,,0.00,VWS V14.01,2013-01-18 04:35:00,
2013-01-17 23:40:00,8.9,0.2,30.17,WSW,248,1.0,3.0,67,0.00,,,0.00,VWS V14.01,2013-01-18 04:40:00,
2013-01-17 23:45:00,8.8,0.1,30.18,SW,225,1.0,3.0,67,0.00,,,0.00,VWS V14.01,2013-01-18 04:45:00,
2013-01-17 23:50:00,8.8,0.1,30.16,WSW,248,1.0,4.0,67,0.00,,,0.00,VWS V14.01,2013-01-18 04:50:00,
2013-01-17 23:55:00,8.7,0.3,30.16,WSW,248,0.0,3.0,68,0.00,,,0.00,VWS V14.01,2013-01-18 04:55:00,